sensor_id;sensor_type;location;lat;lon;timestamp;temperature;humidity
24402;DHT22;12539;48.808;11.292;2022-12-29T00:02:13;7.00;99.90
24402;DHT22;12539;48.808;11.292;2022-12-29T00:04:39;7.00;99.90
24402;DHT22;12539;48.808;11.292;2022-12-29T00:07:05;7.10;99.90
24402;DHT22;12539;48.808;11.292;2022-12-29T00:09:32;7.10;99.90
24402;DHT22;12539;48.808;11.292;2022-12-29T00:11:58;7.20;99.90
24402;DHT22;12539;48.808;11.292;2022-12-29T00:14:24;7.20;99.90
24402;DHT22;12539;48.808;11.292;2022-12-29T00:17:08;7.20;99.90
24402;DHT22;12539;48.808;11.292;2022-12-29T00:19:34;7.10;99.90
24402;DHT22;12539;48.808;11.292;2022-12-29T00:22:19;7.00;99.90
24402;DHT22;12539;48.808;11.292;2022-12-29T00:25:05;6.90;99.90
24402;DHT22;12539;48.808;11.292;2022-12-29T00:27:49;6.80;99.90
24402;DHT22;12539;48.808;11.292;2022-12-29T00:30:33;6.70;99.90
24402;DHT22;12539;48.808;11.292;2022-12-29T00:33:20;6.70;99.90
24402;DHT22;12539;48.808;11.292;2022-12-29T00:38:52;6.80;99.90
24402;DHT22;12539;48.808;11.292;2022-12-29T00:41:37;6.80;99.90
24402;DHT22;12539;48.808;11.292;2022-12-29T00:44:21;6.80;99.90
24402;DHT22;12539;48.808;11.292;2022-12-29T00:46:46;6.90;99.90
24402;DHT22;12539;48.808;11.292;2022-12-29T00:49:13;6.90;99.90
24402;DHT22;12539;48.808;11.292;2022-12-29T00:52:06;6.90;99.90
24402;DHT22;12539;48.808;11.292;2022-12-29T00:54:34;6.90;99.90
24402;DHT22;12539;48.808;11.292;2022-12-29T00:57:01;6.90;99.90
24402;DHT22;12539;48.808;11.292;2022-12-29T00:59:27;6.90;99.90
24402;DHT22;12539;48.808;11.292;2022-12-29T01:01:54;6.90;99.90
24402;DHT22;12539;48.808;11.292;2022-12-29T01:04:22;6.90;99.90
24402;DHT22;12539;48.808;11.292;2022-12-29T01:06:49;7.00;99.90
24402;DHT22;12539;48.808;11.292;2022-12-29T01:09:15;7.00;99.90
24402;DHT22;12539;48.808;11.292;2022-12-29T01:12:00;7.10;99.90
24402;DHT22;12539;48.808;11.292;2022-12-29T01:14:26;7.10;99.90
24402;DHT22;12539;48.808;11.292;2022-12-29T01:16:53;7.10;99.90
24402;DHT22;12539;48.808;11.292;2022-12-29T01:19:19;7.10;99.90
24402;DHT22;12539;48.808;11.292;2022-12-29T01:21:46;7.20;99.90
24402;DHT22;12539;48.808;11.292;2022-12-29T01:24:11;7.20;99.90
24402;DHT22;12539;48.808;11.292;2022-12-29T01:26:37;7.20;99.90
24402;DHT22;12539;48.808;11.292;2022-12-29T01:29:03;7.20;99.90
24402;DHT22;12539;48.808;11.292;2022-12-29T01:31:29;7.20;99.90
24402;DHT22;12539;48.808;11.292;2022-12-29T01:33:54;7.20;99.90
24402;DHT22;12539;48.808;11.292;2022-12-29T01:36:20;7.10;99.90
24402;DHT22;12539;48.808;11.292;2022-12-29T01:38:46;7.10;99.90
24402;DHT22;12539;48.808;11.292;2022-12-29T01:41:14;7.10;99.90
24402;DHT22;12539;48.808;11.292;2022-12-29T01:43:42;7.00;99.90
24402;DHT22;12539;48.808;11.292;2022-12-29T01:48:49;7.00;99.90
24402;DHT22;12539;48.808;11.292;2022-12-29T01:51:16;7.00;99.90
24402;DHT22;12539;48.808;11.292;2022-12-29T01:53:43;7.00;99.90
24402;DHT22;12539;48.808;11.292;2022-12-29T01:56:12;7.00;99.90
24402;DHT22;12539;48.808;11.292;2022-12-29T01:58:44;7.10;99.90
24402;DHT22;12539;48.808;11.292;2022-12-29T02:01:12;7.10;99.90
24402;DHT22;12539;48.808;11.292;2022-12-29T02:03:38;7.20;99.90
24402;DHT22;12539;48.808;11.292;2022-12-29T02:06:08;7.10;99.90
24402;DHT22;12539;48.808;11.292;2022-12-29T02:08:38;7.10;99.90
24402;DHT22;12539;48.808;11.292;2022-12-29T02:11:05;7.00;99.90
24402;DHT22;12539;48.808;11.292;2022-12-29T02:13:31;7.10;99.90
24402;DHT22;12539;48.808;11.292;2022-12-29T02:24:44;7.20;99.90
24402;DHT22;12539;48.808;11.292;2022-12-29T02:30:08;7.20;99.90
24402;DHT22;12539;48.808;11.292;2022-12-29T02:38:20;7.10;99.90
24402;DHT22;12539;48.808;11.292;2022-12-29T02:43:38;7.10;99.90
24402;DHT22;12539;48.808;11.292;2022-12-29T02:46:33;7.00;99.90
24402;DHT22;12539;48.808;11.292;2022-12-29T02:49:20;7.00;99.90
24402;DHT22;12539;48.808;11.292;2022-12-29T02:52:04;7.00;99.90
24402;DHT22;12539;48.808;11.292;2022-12-29T02:54:32;7.10;99.90
24402;DHT22;12539;48.808;11.292;2022-12-29T03:00:09;7.20;99.90
24402;DHT22;12539;48.808;11.292;2022-12-29T03:11:02;7.40;99.90
24402;DHT22;12539;48.808;11.292;2022-12-29T03:13:36;7.50;99.90
24402;DHT22;12539;48.808;11.292;2022-12-29T03:16:28;7.50;99.90
24402;DHT22;12539;48.808;11.292;2022-12-29T03:19:21;7.50;99.90
24402;DHT22;12539;48.808;11.292;2022-12-29T03:22:01;7.50;99.90
24402;DHT22;12539;48.808;11.292;2022-12-29T03:24:49;7.40;99.90
24402;DHT22;12539;48.808;11.292;2022-12-29T03:27:23;7.30;99.90
24402;DHT22;12539;48.808;11.292;2022-12-29T03:29:55;7.10;99.90
24402;DHT22;12539;48.808;11.292;2022-12-29T03:32:26;7.00;99.90
24402;DHT22;12539;48.808;11.292;2022-12-29T03:34:53;6.90;99.90
24402;DHT22;12539;48.808;11.292;2022-12-29T03:37:23;6.70;99.90
24402;DHT22;12539;48.808;11.292;2022-12-29T03:39:51;6.60;99.90
24402;DHT22;12539;48.808;11.292;2022-12-29T03:42:20;6.60;99.90
24402;DHT22;12539;48.808;11.292;2022-12-29T03:44:47;6.50;99.90
24402;DHT22;12539;48.808;11.292;2022-12-29T03:47:14;6.50;99.90
24402;DHT22;12539;48.808;11.292;2022-12-29T03:49:40;6.50;99.90
24402;DHT22;12539;48.808;11.292;2022-12-29T03:52:06;6.50;99.90
24402;DHT22;12539;48.808;11.292;2022-12-29T03:54:32;6.70;99.90
24402;DHT22;12539;48.808;11.292;2022-12-29T03:56:58;6.80;99.90
24402;DHT22;12539;48.808;11.292;2022-12-29T03:59:24;6.90;99.90
24402;DHT22;12539;48.808;11.292;2022-12-29T04:01:49;6.90;99.90
24402;DHT22;12539;48.808;11.292;2022-12-29T04:04:15;7.10;99.90
24402;DHT22;12539;48.808;11.292;2022-12-29T04:06:41;7.20;99.90
24402;DHT22;12539;48.808;11.292;2022-12-29T04:09:07;7.20;99.90
24402;DHT22;12539;48.808;11.292;2022-12-29T04:11:33;7.30;99.90
24402;DHT22;12539;48.808;11.292;2022-12-29T04:13:58;7.40;99.90
24402;DHT22;12539;48.808;11.292;2022-12-29T04:16:24;7.50;99.90
24402;DHT22;12539;48.808;11.292;2022-12-29T04:18:50;7.40;99.90
24402;DHT22;12539;48.808;11.292;2022-12-29T04:21:15;7.40;99.90
24402;DHT22;12539;48.808;11.292;2022-12-29T04:23:41;7.60;99.90
24402;DHT22;12539;48.808;11.292;2022-12-29T04:26:07;7.50;99.90
24402;DHT22;12539;48.808;11.292;2022-12-29T04:28:34;7.50;99.90
24402;DHT22;12539;48.808;11.292;2022-12-29T04:31:00;7.50;99.90
24402;DHT22;12539;48.808;11.292;2022-12-29T04:33:26;7.60;99.90
24402;DHT22;12539;48.808;11.292;2022-12-29T04:35:52;7.70;99.90
24402;DHT22;12539;48.808;11.292;2022-12-29T04:38:20;7.60;99.90
24402;DHT22;12539;48.808;11.292;2022-12-29T04:40:46;7.70;99.90
24402;DHT22;12539;48.808;11.292;2022-12-29T04:43:13;7.70;99.90
24402;DHT22;12539;48.808;11.292;2022-12-29T04:45:43;7.70;99.90
24402;DHT22;12539;48.808;11.292;2022-12-29T04:48:09;7.70;99.90
24402;DHT22;12539;48.808;11.292;2022-12-29T04:50:34;7.70;99.90
24402;DHT22;12539;48.808;11.292;2022-12-29T04:53:00;7.70;99.90
24402;DHT22;12539;48.808;11.292;2022-12-29T04:55:26;7.80;99.90
24402;DHT22;12539;48.808;11.292;2022-12-29T04:57:52;7.80;99.90
24402;DHT22;12539;48.808;11.292;2022-12-29T05:00:18;7.90;99.90
24402;DHT22;12539;48.808;11.292;2022-12-29T05:02:44;7.90;99.90
24402;DHT22;12539;48.808;11.292;2022-12-29T05:05:11;7.90;99.90
24402;DHT22;12539;48.808;11.292;2022-12-29T05:07:36;7.80;99.90
24402;DHT22;12539;48.808;11.292;2022-12-29T05:10:03;7.80;99.90
24402;DHT22;12539;48.808;11.292;2022-12-29T05:12:30;7.80;99.90
24402;DHT22;12539;48.808;11.292;2022-12-29T05:14:56;7.80;99.90
24402;DHT22;12539;48.808;11.292;2022-12-29T05:17:22;7.70;99.90
24402;DHT22;12539;48.808;11.292;2022-12-29T05:19:47;7.80;99.90
24402;DHT22;12539;48.808;11.292;2022-12-29T05:22:13;7.90;99.90
24402;DHT22;12539;48.808;11.292;2022-12-29T05:24:39;7.80;99.90
24402;DHT22;12539;48.808;11.292;2022-12-29T05:27:05;7.80;99.90
24402;DHT22;12539;48.808;11.292;2022-12-29T05:29:31;7.80;99.90
24402;DHT22;12539;48.808;11.292;2022-12-29T05:31:57;7.80;99.90
24402;DHT22;12539;48.808;11.292;2022-12-29T05:34:22;7.80;99.90
24402;DHT22;12539;48.808;11.292;2022-12-29T05:36:48;7.70;99.90
24402;DHT22;12539;48.808;11.292;2022-12-29T05:39:13;7.60;99.90
24402;DHT22;12539;48.808;11.292;2022-12-29T05:41:39;7.60;99.90
24402;DHT22;12539;48.808;11.292;2022-12-29T05:44:05;7.50;99.90
24402;DHT22;12539;48.808;11.292;2022-12-29T05:46:30;7.60;99.90
24402;DHT22;12539;48.808;11.292;2022-12-29T05:48:56;7.60;99.90
24402;DHT22;12539;48.808;11.292;2022-12-29T05:51:22;7.60;99.90
24402;DHT22;12539;48.808;11.292;2022-12-29T05:53:48;7.60;99.90
24402;DHT22;12539;48.808;11.292;2022-12-29T05:56:13;7.60;99.90
24402;DHT22;12539;48.808;11.292;2022-12-29T05:58:39;7.50;99.90
24402;DHT22;12539;48.808;11.292;2022-12-29T06:01:05;7.40;99.90
24402;DHT22;12539;48.808;11.292;2022-12-29T06:03:30;7.40;99.90
24402;DHT22;12539;48.808;11.292;2022-12-29T06:05:56;7.30;99.90
24402;DHT22;12539;48.808;11.292;2022-12-29T06:08:21;7.20;99.90
24402;DHT22;12539;48.808;11.292;2022-12-29T06:10:47;7.20;99.90
24402;DHT22;12539;48.808;11.292;2022-12-29T06:13:13;7.20;99.90
24402;DHT22;12539;48.808;11.292;2022-12-29T06:15:38;7.20;99.90
24402;DHT22;12539;48.808;11.292;2022-12-29T06:18:04;7.10;99.90
24402;DHT22;12539;48.808;11.292;2022-12-29T06:20:30;7.10;99.90
24402;DHT22;12539;48.808;11.292;2022-12-29T06:22:55;7.10;99.90
24402;DHT22;12539;48.808;11.292;2022-12-29T06:25:21;7.10;99.90
24402;DHT22;12539;48.808;11.292;2022-12-29T06:27:47;7.00;99.90
24402;DHT22;12539;48.808;11.292;2022-12-29T06:30:12;7.00;99.90
24402;DHT22;12539;48.808;11.292;2022-12-29T06:32:38;6.90;99.90
24402;DHT22;12539;48.808;11.292;2022-12-29T06:35:05;6.80;99.90
24402;DHT22;12539;48.808;11.292;2022-12-29T06:37:33;6.80;99.90
24402;DHT22;12539;48.808;11.292;2022-12-29T06:39:59;6.80;99.90
24402;DHT22;12539;48.808;11.292;2022-12-29T06:42:25;6.80;99.90
24402;DHT22;12539;48.808;11.292;2022-12-29T06:44:50;6.80;99.90
24402;DHT22;12539;48.808;11.292;2022-12-29T06:47:16;6.80;99.90
24402;DHT22;12539;48.808;11.292;2022-12-29T06:49:42;6.80;99.90
24402;DHT22;12539;48.808;11.292;2022-12-29T06:52:07;6.70;99.90
24402;DHT22;12539;48.808;11.292;2022-12-29T06:54:33;6.70;99.90
24402;DHT22;12539;48.808;11.292;2022-12-29T06:56:59;6.80;99.90
24402;DHT22;12539;48.808;11.292;2022-12-29T06:59:24;6.70;99.90
24402;DHT22;12539;48.808;11.292;2022-12-29T07:01:51;6.80;99.90
24402;DHT22;12539;48.808;11.292;2022-12-29T07:04:17;6.80;99.90
24402;DHT22;12539;48.808;11.292;2022-12-29T07:06:42;6.80;99.90
24402;DHT22;12539;48.808;11.292;2022-12-29T07:09:08;6.80;99.90
24402;DHT22;12539;48.808;11.292;2022-12-29T07:11:34;6.90;99.90
24402;DHT22;12539;48.808;11.292;2022-12-29T07:14:00;6.90;99.90
24402;DHT22;12539;48.808;11.292;2022-12-29T07:16:26;6.90;99.90
24402;DHT22;12539;48.808;11.292;2022-12-29T07:18:52;7.00;99.90
24402;DHT22;12539;48.808;11.292;2022-12-29T07:21:18;7.10;99.90
24402;DHT22;12539;48.808;11.292;2022-12-29T07:23:44;7.20;99.90
24402;DHT22;12539;48.808;11.292;2022-12-29T07:26:12;7.20;99.90
24402;DHT22;12539;48.808;11.292;2022-12-29T07:28:38;7.20;99.90
24402;DHT22;12539;48.808;11.292;2022-12-29T07:31:14;7.10;99.90
24402;DHT22;12539;48.808;11.292;2022-12-29T07:33:41;7.00;99.90
24402;DHT22;12539;48.808;11.292;2022-12-29T07:36:09;7.00;99.90
24402;DHT22;12539;48.808;11.292;2022-12-29T07:38:34;7.00;99.90
24402;DHT22;12539;48.808;11.292;2022-12-29T07:41:00;7.00;99.90
24402;DHT22;12539;48.808;11.292;2022-12-29T07:43:25;7.00;99.90
24402;DHT22;12539;48.808;11.292;2022-12-29T07:45:51;7.10;99.90
24402;DHT22;12539;48.808;11.292;2022-12-29T07:48:17;7.10;99.90
24402;DHT22;12539;48.808;11.292;2022-12-29T07:50:42;7.20;99.90
24402;DHT22;12539;48.808;11.292;2022-12-29T07:53:08;7.20;99.90
24402;DHT22;12539;48.808;11.292;2022-12-29T07:55:34;7.20;99.90
24402;DHT22;12539;48.808;11.292;2022-12-29T07:58:00;7.30;99.90
24402;DHT22;12539;48.808;11.292;2022-12-29T08:00:25;7.40;99.90
24402;DHT22;12539;48.808;11.292;2022-12-29T08:02:51;7.50;99.90
24402;DHT22;12539;48.808;11.292;2022-12-29T08:05:17;7.60;99.90
24402;DHT22;12539;48.808;11.292;2022-12-29T08:07:44;7.60;99.90
24402;DHT22;12539;48.808;11.292;2022-12-29T08:10:10;7.70;99.90
24402;DHT22;12539;48.808;11.292;2022-12-29T08:12:38;7.80;99.90
24402;DHT22;12539;48.808;11.292;2022-12-29T08:15:05;7.90;99.90
24402;DHT22;12539;48.808;11.292;2022-12-29T08:17:31;8.00;99.90
24402;DHT22;12539;48.808;11.292;2022-12-29T08:19:56;8.10;99.90
24402;DHT22;12539;48.808;11.292;2022-12-29T08:22:23;8.20;99.90
24402;DHT22;12539;48.808;11.292;2022-12-29T08:24:49;8.30;99.90
24402;DHT22;12539;48.808;11.292;2022-12-29T08:27:15;8.30;99.90
24402;DHT22;12539;48.808;11.292;2022-12-29T08:29:40;8.30;99.90
24402;DHT22;12539;48.808;11.292;2022-12-29T08:32:06;8.20;99.90
24402;DHT22;12539;48.808;11.292;2022-12-29T08:34:32;8.20;99.90
24402;DHT22;12539;48.808;11.292;2022-12-29T08:36:58;8.20;99.90
24402;DHT22;12539;48.808;11.292;2022-12-29T08:39:24;8.20;99.90
24402;DHT22;12539;48.808;11.292;2022-12-29T08:41:49;8.10;99.90
24402;DHT22;12539;48.808;11.292;2022-12-29T08:44:15;8.10;99.90
24402;DHT22;12539;48.808;11.292;2022-12-29T08:46:41;8.10;99.90
24402;DHT22;12539;48.808;11.292;2022-12-29T08:49:08;8.10;99.90
24402;DHT22;12539;48.808;11.292;2022-12-29T08:51:33;8.10;99.90
24402;DHT22;12539;48.808;11.292;2022-12-29T08:53:59;8.20;99.90
24402;DHT22;12539;48.808;11.292;2022-12-29T08:56:25;8.30;99.90
24402;DHT22;12539;48.808;11.292;2022-12-29T08:58:52;8.40;99.90
24402;DHT22;12539;48.808;11.292;2022-12-29T09:01:18;8.40;99.90
24402;DHT22;12539;48.808;11.292;2022-12-29T09:03:44;8.50;99.90
24402;DHT22;12539;48.808;11.292;2022-12-29T09:06:10;8.60;99.90
24402;DHT22;12539;48.808;11.292;2022-12-29T09:08:35;8.70;99.90
24402;DHT22;12539;48.808;11.292;2022-12-29T09:11:22;8.70;99.90
24402;DHT22;12539;48.808;11.292;2022-12-29T09:13:48;8.80;99.90
24402;DHT22;12539;48.808;11.292;2022-12-29T09:16:15;8.80;99.90
24402;DHT22;12539;48.808;11.292;2022-12-29T09:18:41;8.90;99.90
24402;DHT22;12539;48.808;11.292;2022-12-29T09:21:09;8.90;99.90
24402;DHT22;12539;48.808;11.292;2022-12-29T09:23:35;9.00;99.90
24402;DHT22;12539;48.808;11.292;2022-12-29T09:26:01;9.00;99.90
24402;DHT22;12539;48.808;11.292;2022-12-29T09:28:27;9.10;99.90
24402;DHT22;12539;48.808;11.292;2022-12-29T09:30:54;9.20;99.90
24402;DHT22;12539;48.808;11.292;2022-12-29T09:33:20;9.30;99.90
24402;DHT22;12539;48.808;11.292;2022-12-29T09:35:51;9.30;99.90
24402;DHT22;12539;48.808;11.292;2022-12-29T09:38:18;9.40;99.90
24402;DHT22;12539;48.808;11.292;2022-12-29T09:40:49;9.50;99.90
24402;DHT22;12539;48.808;11.292;2022-12-29T09:46:27;9.50;99.90
24402;DHT22;12539;48.808;11.292;2022-12-29T09:49:21;9.50;99.90
24402;DHT22;12539;48.808;11.292;2022-12-29T09:51:53;9.60;99.90
24402;DHT22;12539;48.808;11.292;2022-12-29T09:54:34;9.70;99.90
24402;DHT22;12539;48.808;11.292;2022-12-29T09:57:02;9.70;99.90
24402;DHT22;12539;48.808;11.292;2022-12-29T09:59:42;9.70;99.90
24402;DHT22;12539;48.808;11.292;2022-12-29T10:04:47;9.70;99.90
24402;DHT22;12539;48.808;11.292;2022-12-29T10:07:41;9.70;99.90
24402;DHT22;12539;48.808;11.292;2022-12-29T10:10:10;9.70;99.90
24402;DHT22;12539;48.808;11.292;2022-12-29T10:13:01;9.70;99.90
24402;DHT22;12539;48.808;11.292;2022-12-29T10:16:20;9.80;99.90
24402;DHT22;12539;48.808;11.292;2022-12-29T10:18:53;9.80;99.90
24402;DHT22;12539;48.808;11.292;2022-12-29T10:21:49;9.90;99.90
24402;DHT22;12539;48.808;11.292;2022-12-29T10:24:20;9.90;99.90
24402;DHT22;12539;48.808;11.292;2022-12-29T10:26:48;10.00;99.90
24402;DHT22;12539;48.808;11.292;2022-12-29T10:29:19;10.10;99.90
24402;DHT22;12539;48.808;11.292;2022-12-29T10:35:11;10.20;99.90
24402;DHT22;12539;48.808;11.292;2022-12-29T10:37:21;10.30;99.90
24402;DHT22;12539;48.808;11.292;2022-12-29T10:39:52;10.40;99.90
24402;DHT22;12539;48.808;11.292;2022-12-29T10:44:47;10.70;99.90
24402;DHT22;12539;48.808;11.292;2022-12-29T10:47:19;10.80;99.90
24402;DHT22;12539;48.808;11.292;2022-12-29T10:49:47;10.90;99.90
24402;DHT22;12539;48.808;11.292;2022-12-29T10:52:15;11.00;99.90
24402;DHT22;12539;48.808;11.292;2022-12-29T10:59:50;11.30;99.90
24402;DHT22;12539;48.808;11.292;2022-12-29T11:05:19;11.40;99.90
24402;DHT22;12539;48.808;11.292;2022-12-29T11:07:50;11.40;99.90
24402;DHT22;12539;48.808;11.292;2022-12-29T11:10:41;11.30;99.90
24402;DHT22;12539;48.808;11.292;2022-12-29T11:13:26;11.30;99.90
24402;DHT22;12539;48.808;11.292;2022-12-29T11:15:52;11.10;99.90
24402;DHT22;12539;48.808;11.292;2022-12-29T11:20:56;10.90;99.90
24402;DHT22;12539;48.808;11.292;2022-12-29T11:26:19;10.90;99.90
24402;DHT22;12539;48.808;11.292;2022-12-29T11:31:51;11.10;99.90
24402;DHT22;12539;48.808;11.292;2022-12-29T11:34:20;11.30;99.90
24402;DHT22;12539;48.808;11.292;2022-12-29T11:36:47;11.30;99.90
24402;DHT22;12539;48.808;11.292;2022-12-29T11:42:14;11.50;99.90
24402;DHT22;12539;48.808;11.292;2022-12-29T11:44:44;11.50;99.90
24402;DHT22;12539;48.808;11.292;2022-12-29T11:47:28;11.60;99.90
24402;DHT22;12539;48.808;11.292;2022-12-29T11:50:00;11.70;99.90
24402;DHT22;12539;48.808;11.292;2022-12-29T11:52:34;11.80;99.90
24402;DHT22;12539;48.808;11.292;2022-12-29T11:55:04;11.90;99.90
24402;DHT22;12539;48.808;11.292;2022-12-29T11:57:33;11.90;99.90
24402;DHT22;12539;48.808;11.292;2022-12-29T12:00:05;12.00;99.90
24402;DHT22;12539;48.808;11.292;2022-12-29T12:07:45;12.20;99.90
24402;DHT22;12539;48.808;11.292;2022-12-29T12:10:18;12.20;99.90
24402;DHT22;12539;48.808;11.292;2022-12-29T12:13:15;12.20;99.90
24402;DHT22;12539;48.808;11.292;2022-12-29T12:15:43;12.20;99.90
24402;DHT22;12539;48.808;11.292;2022-12-29T12:21:04;12.20;99.90
24402;DHT22;12539;48.808;11.292;2022-12-29T12:23:42;12.20;99.90
24402;DHT22;12539;48.808;11.292;2022-12-29T12:26:13;12.10;99.90
24402;DHT22;12539;48.808;11.292;2022-12-29T12:28:53;12.10;99.90
24402;DHT22;12539;48.808;11.292;2022-12-29T12:34:14;12.20;99.90
24402;DHT22;12539;48.808;11.292;2022-12-29T12:36:59;12.10;99.90
24402;DHT22;12539;48.808;11.292;2022-12-29T12:39:37;12.20;99.90
24402;DHT22;12539;48.808;11.292;2022-12-29T12:56:30;12.30;99.90
24402;DHT22;12539;48.808;11.292;2022-12-29T13:02:11;12.30;99.90
24402;DHT22;12539;48.808;11.292;2022-12-29T13:07:42;12.30;99.90
24402;DHT22;12539;48.808;11.292;2022-12-29T13:13:40;12.30;99.90
24402;DHT22;12539;48.808;11.292;2022-12-29T13:16:34;12.30;99.90
24402;DHT22;12539;48.808;11.292;2022-12-29T13:19:11;12.30;99.90
24402;DHT22;12539;48.808;11.292;2022-12-29T13:26:53;12.30;99.90
24402;DHT22;12539;48.808;11.292;2022-12-29T13:34:54;12.30;99.90
24402;DHT22;12539;48.808;11.292;2022-12-29T13:37:25;12.30;99.90
24402;DHT22;12539;48.808;11.292;2022-12-29T13:39:57;12.30;99.90
24402;DHT22;12539;48.808;11.292;2022-12-29T13:42:25;12.30;99.90
24402;DHT22;12539;48.808;11.292;2022-12-29T13:45:05;12.20;99.90
24402;DHT22;12539;48.808;11.292;2022-12-29T13:47:38;12.20;99.90
24402;DHT22;12539;48.808;11.292;2022-12-29T13:50:14;12.20;99.90
24402;DHT22;12539;48.808;11.292;2022-12-29T13:53:15;12.20;99.90
24402;DHT22;12539;48.808;11.292;2022-12-29T13:56:07;12.20;99.90
24402;DHT22;12539;48.808;11.292;2022-12-29T14:03:47;12.00;99.90
24402;DHT22;12539;48.808;11.292;2022-12-29T14:06:34;12.00;99.90
24402;DHT22;12539;48.808;11.292;2022-12-29T14:09:18;12.00;99.90
24402;DHT22;12539;48.808;11.292;2022-12-29T14:11:52;12.00;99.90
24402;DHT22;12539;48.808;11.292;2022-12-29T14:14:24;12.00;99.90
24402;DHT22;12539;48.808;11.292;2022-12-29T14:16:50;12.10;99.90
24402;DHT22;12539;48.808;11.292;2022-12-29T14:19:21;12.00;99.90
24402;DHT22;12539;48.808;11.292;2022-12-29T14:22:00;12.00;99.90
24402;DHT22;12539;48.808;11.292;2022-12-29T14:24:42;12.00;99.90
24402;DHT22;12539;48.808;11.292;2022-12-29T14:34:51;11.90;99.90
24402;DHT22;12539;48.808;11.292;2022-12-29T14:37:36;11.90;99.90
24402;DHT22;12539;48.808;11.292;2022-12-29T14:40:24;11.80;99.90
24402;DHT22;12539;48.808;11.292;2022-12-29T14:42:54;11.70;99.90
24402;DHT22;12539;48.808;11.292;2022-12-29T14:47:49;11.60;99.90
24402;DHT22;12539;48.808;11.292;2022-12-29T14:52:56;11.50;99.90
24402;DHT22;12539;48.808;11.292;2022-12-29T14:58:14;11.40;99.90
24402;DHT22;12539;48.808;11.292;2022-12-29T15:00:41;11.30;99.90
24402;DHT22;12539;48.808;11.292;2022-12-29T15:03:29;11.30;99.90
24402;DHT22;12539;48.808;11.292;2022-12-29T15:08:53;11.10;99.90
24402;DHT22;12539;48.808;11.292;2022-12-29T15:11:22;11.00;99.90
24402;DHT22;12539;48.808;11.292;2022-12-29T15:13:49;11.00;99.90
24402;DHT22;12539;48.808;11.292;2022-12-29T15:16:28;10.90;99.90
24402;DHT22;12539;48.808;11.292;2022-12-29T15:18:55;10.80;99.90
24402;DHT22;12539;48.808;11.292;2022-12-29T15:21:34;10.70;99.90
24402;DHT22;12539;48.808;11.292;2022-12-29T15:24:02;10.70;99.90
24402;DHT22;12539;48.808;11.292;2022-12-29T15:26:42;10.60;99.90
24402;DHT22;12539;48.808;11.292;2022-12-29T15:29:29;10.60;99.90
24402;DHT22;12539;48.808;11.292;2022-12-29T15:31:57;10.60;99.90
24402;DHT22;12539;48.808;11.292;2022-12-29T15:34:24;10.50;99.90
24402;DHT22;12539;48.808;11.292;2022-12-29T15:36:50;10.50;99.90
24402;DHT22;12539;48.808;11.292;2022-12-29T15:39:31;10.50;99.90
24402;DHT22;12539;48.808;11.292;2022-12-29T15:44:42;10.30;99.90
24402;DHT22;12539;48.808;11.292;2022-12-29T15:47:21;10.30;99.90
24402;DHT22;12539;48.808;11.292;2022-12-29T15:49:49;10.20;99.90
24402;DHT22;12539;48.808;11.292;2022-12-29T15:52:21;10.10;99.90
24402;DHT22;12539;48.808;11.292;2022-12-29T15:54:52;10.10;99.90
24402;DHT22;12539;48.808;11.292;2022-12-29T15:57:26;10.10;99.90
24402;DHT22;12539;48.808;11.292;2022-12-29T15:59:52;10.20;99.90
24402;DHT22;12539;48.808;11.292;2022-12-29T16:02:21;10.10;99.90
24402;DHT22;12539;48.808;11.292;2022-12-29T16:04:48;10.20;99.90
24402;DHT22;12539;48.808;11.292;2022-12-29T16:07:30;10.10;99.90
24402;DHT22;12539;48.808;11.292;2022-12-29T16:10:00;10.10;99.90
24402;DHT22;12539;48.808;11.292;2022-12-29T16:12:34;10.00;99.90
24402;DHT22;12539;48.808;11.292;2022-12-29T16:15:03;10.00;99.90
24402;DHT22;12539;48.808;11.292;2022-12-29T16:17:32;9.90;99.90
24402;DHT22;12539;48.808;11.292;2022-12-29T16:20:22;9.90;99.90
24402;DHT22;12539;48.808;11.292;2022-12-29T16:22:49;9.80;99.90
24402;DHT22;12539;48.808;11.292;2022-12-29T16:25:16;9.80;99.90
24402;DHT22;12539;48.808;11.292;2022-12-29T16:27:44;9.80;99.90
24402;DHT22;12539;48.808;11.292;2022-12-29T16:30:31;9.80;99.90
24402;DHT22;12539;48.808;11.292;2022-12-29T16:32:59;9.80;99.90
24402;DHT22;12539;48.808;11.292;2022-12-29T16:35:44;9.80;99.90
24402;DHT22;12539;48.808;11.292;2022-12-29T16:40:55;9.80;99.90
24402;DHT22;12539;48.808;11.292;2022-12-29T16:43:27;9.80;99.90
24402;DHT22;12539;48.808;11.292;2022-12-29T16:48:21;9.80;99.90
24402;DHT22;12539;48.808;11.292;2022-12-29T16:50:49;9.90;99.90
24402;DHT22;12539;48.808;11.292;2022-12-29T16:53:39;9.90;99.90
24402;DHT22;12539;48.808;11.292;2022-12-29T16:56:16;10.00;99.90
24402;DHT22;12539;48.808;11.292;2022-12-29T16:58:47;10.00;99.90
24402;DHT22;12539;48.808;11.292;2022-12-29T17:01:13;10.00;99.90
24402;DHT22;12539;48.808;11.292;2022-12-29T17:03:57;10.00;99.90
24402;DHT22;12539;48.808;11.292;2022-12-29T17:06:23;9.90;99.90
24402;DHT22;12539;48.808;11.292;2022-12-29T17:08:50;9.90;99.90
24402;DHT22;12539;48.808;11.292;2022-12-29T17:14:22;9.90;99.90
24402;DHT22;12539;48.808;11.292;2022-12-29T17:16:48;9.90;99.90
24402;DHT22;12539;48.808;11.292;2022-12-29T17:19:19;9.90;99.90
24402;DHT22;12539;48.808;11.292;2022-12-29T17:21:45;9.90;99.90
24402;DHT22;12539;48.808;11.292;2022-12-29T17:24:18;9.90;99.90
24402;DHT22;12539;48.808;11.292;2022-12-29T17:26:51;9.90;99.90
24402;DHT22;12539;48.808;11.292;2022-12-29T17:29:43;9.90;99.90
24402;DHT22;12539;48.808;11.292;2022-12-29T17:32:12;9.90;99.90
24402;DHT22;12539;48.808;11.292;2022-12-29T17:34:40;9.90;99.90
24402;DHT22;12539;48.808;11.292;2022-12-29T17:37:31;9.90;99.90
24402;DHT22;12539;48.808;11.292;2022-12-29T17:39:57;9.90;99.90
24402;DHT22;12539;48.808;11.292;2022-12-29T17:42:23;9.90;99.90
24402;DHT22;12539;48.808;11.292;2022-12-29T17:44:48;9.80;99.90
24402;DHT22;12539;48.808;11.292;2022-12-29T17:47:14;9.80;99.90
24402;DHT22;12539;48.808;11.292;2022-12-29T17:49:40;9.80;99.90
24402;DHT22;12539;48.808;11.292;2022-12-29T17:52:13;9.80;99.90
24402;DHT22;12539;48.808;11.292;2022-12-29T17:54:50;9.80;99.90
24402;DHT22;12539;48.808;11.292;2022-12-29T17:57:16;9.70;99.90
24402;DHT22;12539;48.808;11.292;2022-12-29T17:59:42;9.70;99.90
24402;DHT22;12539;48.808;11.292;2022-12-29T18:02:30;9.50;99.90
24402;DHT22;12539;48.808;11.292;2022-12-29T18:04:57;9.40;99.90
24402;DHT22;12539;48.808;11.292;2022-12-29T18:07:28;9.30;99.90
24402;DHT22;12539;48.808;11.292;2022-12-29T18:09:54;9.30;99.90
24402;DHT22;12539;48.808;11.292;2022-12-29T18:12:41;9.30;99.90
24402;DHT22;12539;48.808;11.292;2022-12-29T18:15:17;9.30;99.90
24402;DHT22;12539;48.808;11.292;2022-12-29T18:17:44;9.30;99.90